createdAt,value
2022-10-07T00:01:13.706Z,29.40
2022-10-07T00:06:16.185Z,30.77
2022-10-07T00:08:48.722Z,26.45
2022-10-07T00:11:17.047Z,27.95
2022-10-07T00:13:46.224Z,30.17
2022-10-07T00:16:17.229Z,27.67
2022-10-07T00:18:44.766Z,27.13
2022-10-07T00:21:16.231Z,24.63
2022-10-07T00:23:44.467Z,27.08
2022-10-07T00:26:16.927Z,26.30
2022-10-07T00:28:43.874Z,28.48
2022-10-07T00:31:19.207Z,27.83
2022-10-07T00:33:46.894Z,23.75
2022-10-07T00:36:25.250Z,31.62
2022-10-07T00:38:57.639Z,21.42
2022-10-07T00:41:28.243Z,25.48
2022-10-07T00:43:55.548Z,26.50
2022-10-07T00:46:34.182Z,22.83
2022-10-07T00:49:05.373Z,25.37
2022-10-07T00:51:34.070Z,23.35
2022-10-07T00:54:04.057Z,24.67
2022-10-07T00:56:31.087Z,25.90
2022-10-07T00:59:01.526Z,29.00
2022-10-07T01:01:30.401Z,29.00
2022-10-07T01:03:57.301Z,24.98
2022-10-07T01:06:24.270Z,20.95
2022-10-07T01:08:52.961Z,23.38
2022-10-07T01:11:26.828Z,24.05
2022-10-07T01:13:59.718Z,23.55
2022-10-07T01:17:02.231Z,23.38
2022-10-07T01:19:32.329Z,25.92
2022-10-07T01:22:27.159Z,21.67
2022-10-07T01:25:02.982Z,22.02
2022-10-07T01:27:30.241Z,22.60
2022-10-07T01:30:03.244Z,23.35
2022-10-07T01:32:47.870Z,25.33
2022-10-07T01:35:18.434Z,28.83
2022-10-07T01:37:48.633Z,20.70
2022-10-07T01:40:19.721Z,21.75
2022-10-07T01:42:46.804Z,22.87
2022-10-07T01:45:16.461Z,24.90
2022-10-07T01:47:43.758Z,20.75
2022-10-07T01:50:14.756Z,22.25
2022-10-07T01:53:12.489Z,22.92
2022-10-07T01:56:02.631Z,24.90
2022-10-07T01:58:39.073Z,21.98
2022-10-07T02:01:30.512Z,24.67
2022-10-07T02:04:26.793Z,20.50
2022-10-07T02:07:21.090Z,21.35
2022-10-07T02:10:13.230Z,19.50
2022-10-07T02:12:50.129Z,25.55
2022-10-07T02:15:23.044Z,23.55
2022-10-07T02:17:54.194Z,20.73
2022-10-07T02:20:26.115Z,23.05
2022-10-07T02:22:55.529Z,16.35
2022-10-07T02:25:23.522Z,21.03
2022-10-07T02:27:52.402Z,20.83
2022-10-07T02:30:20.399Z,23.55
2022-10-07T02:32:56.808Z,23.17
2022-10-07T02:35:31.753Z,20.35
2022-10-07T02:38:01.191Z,19.52
2022-10-07T02:40:35.243Z,21.65
2022-10-07T02:43:17.144Z,23.52
2022-10-07T02:46:10.261Z,21.42
2022-10-07T02:48:44.364Z,22.10
2022-10-07T02:51:21.258Z,19.75
2022-10-07T02:53:51.864Z,24.12
2022-10-07T02:56:20.587Z,25.08
2022-10-07T02:58:47.779Z,22.30
2022-10-07T03:01:18.215Z,19.98
2022-10-07T03:03:45.801Z,19.17
2022-10-07T03:06:13.929Z,21.52
2022-10-07T03:08:44.233Z,22.27
2022-10-07T03:11:15.966Z,20.35
2022-10-07T03:13:46.165Z,28.10
2022-10-07T03:16:16.852Z,23.02
2022-10-07T03:21:13.373Z,35.28
2022-10-07T03:23:40.778Z,19.10
2022-10-07T03:26:10.371Z,26.65
2022-10-07T03:28:37.538Z,23.58
2022-10-07T03:33:38.733Z,20.37
2022-10-07T03:36:06.111Z,17.77
2022-10-07T03:38:33.647Z,24.20
2022-10-07T03:41:01.998Z,24.20
2022-10-07T03:43:29.065Z,23.20
2022-10-07T03:45:58.354Z,23.83
2022-10-07T03:48:25.210Z,26.65
2022-10-07T03:50:52.857Z,19.73
2022-10-07T03:53:20.642Z,22.00
2022-10-07T03:55:47.528Z,19.15
2022-10-07T03:58:14.405Z,26.10
2022-10-07T04:00:41.607Z,23.23
2022-10-07T04:03:09.462Z,24.10
2022-10-07T04:05:37.514Z,18.67
2022-10-07T04:08:05.130Z,19.90
2022-10-07T04:10:33.074Z,25.42
2022-10-07T04:13:00.438Z,21.33
2022-10-07T04:15:27.538Z,22.70
2022-10-07T04:17:58.559Z,22.40
2022-10-07T04:20:26.397Z,22.60
2022-10-07T04:22:53.604Z,22.58
2022-10-07T04:25:37.618Z,28.35
2022-10-07T04:28:07.669Z,19.67
2022-10-07T04:30:39.438Z,22.95
2022-10-07T04:33:08.100Z,24.10
2022-10-07T04:35:39.367Z,29.00
2022-10-07T04:38:09.373Z,29.80
2022-10-07T04:40:41.143Z,26.00
2022-10-07T04:43:26.740Z,32.30
2022-10-07T04:46:00.996Z,23.45
2022-10-07T04:48:28.026Z,31.02
2022-10-07T04:50:56.406Z,33.67
2022-10-07T04:53:23.518Z,42.50
2022-10-07T04:55:51.873Z,36.72
2022-10-07T04:58:19.728Z,29.98
2022-10-07T05:00:52.181Z,30.27
2022-10-07T05:03:20.857Z,35.75
2022-10-07T05:05:50.537Z,22.35
2022-10-07T05:08:20.006Z,28.15
2022-10-07T05:10:47.499Z,33.70
2022-10-07T05:13:16.891Z,27.48
2022-10-07T05:15:58.574Z,24.77
2022-10-07T05:18:27.423Z,24.60
2022-10-07T05:20:55.017Z,24.50
2022-10-07T05:23:28.369Z,37.13
2022-10-07T05:25:58.350Z,32.92
2022-10-07T05:28:25.636Z,26.48
2022-10-07T05:31:01.850Z,31.00
2022-10-07T05:33:31.651Z,33.25
2022-10-07T05:35:59.398Z,33.22
2022-10-07T05:38:26.969Z,41.35
2022-10-07T05:41:01.776Z,41.58
2022-10-07T05:43:33.319Z,47.10
2022-10-07T05:46:02.434Z,43.78
2022-10-07T05:48:34.217Z,42.55
2022-10-07T05:51:04.415Z,35.60
2022-10-07T05:53:31.668Z,35.67
2022-10-07T05:55:59.413Z,36.05
2022-10-07T05:58:27.938Z,37.25
2022-10-07T06:01:01.010Z,31.67
2022-10-07T06:03:31.282Z,29.98
2022-10-07T06:06:00.070Z,25.12
2022-10-07T06:08:28.363Z,25.50
2022-10-07T06:11:19.491Z,25.02
2022-10-07T06:13:54.569Z,22.30
2022-10-07T06:16:23.073Z,22.67
2022-10-07T06:18:52.784Z,24.92
2022-10-07T06:21:23.782Z,22.27
2022-10-07T06:23:53.801Z,19.90
2022-10-07T06:26:22.350Z,20.30
2022-10-07T06:28:49.831Z,21.35
2022-10-07T06:31:22.421Z,28.85
2022-10-07T06:33:50.272Z,23.52
2022-10-07T06:36:17.881Z,24.95
2022-10-07T06:38:49.889Z,22.45
2022-10-07T06:41:18.406Z,20.83
2022-10-07T06:43:46.054Z,30.67
2022-10-07T06:46:15.360Z,19.10
2022-10-07T06:48:46.681Z,20.90
2022-10-07T06:51:17.811Z,15.60
2022-10-07T06:53:45.694Z,17.92
2022-10-07T06:56:16.165Z,18.20
2022-10-07T06:58:46.702Z,18.17
2022-10-07T07:01:14.804Z,17.75
2022-10-07T07:03:44.636Z,16.85
2022-10-07T07:06:14.923Z,18.42
2022-10-07T07:08:45.989Z,11.98
2022-10-07T07:11:35.475Z,15.50
2022-10-07T07:14:04.535Z,12.88
2022-10-07T07:16:32.335Z,19.70
2022-10-07T07:19:02.065Z,20.80
2022-10-07T07:21:30.197Z,24.40
2022-10-07T07:23:57.878Z,12.55
2022-10-07T07:26:24.930Z,13.20
2022-10-07T07:29:04.415Z,16.50
2022-10-07T07:31:35.019Z,15.43
2022-10-07T07:34:05.605Z,15.38
2022-10-07T07:36:36.202Z,16.23
2022-10-07T07:39:06.375Z,12.70
2022-10-07T07:41:37.070Z,15.48
2022-10-07T07:44:05.979Z,16.92
2022-10-07T07:46:36.308Z,12.82
2022-10-07T07:49:04.035Z,16.95
2022-10-07T07:54:00.450Z,18.23
2022-10-07T07:56:33.767Z,14.43
2022-10-07T07:59:01.512Z,16.92
2022-10-07T08:01:31.967Z,20.88
2022-10-07T08:04:00.975Z,33.33
2022-10-07T08:06:28.504Z,33.08
2022-10-07T08:08:59.527Z,17.40
2022-10-07T08:11:28.209Z,18.33
2022-10-07T08:13:56.391Z,22.62
2022-10-07T08:16:25.928Z,20.88
2022-10-07T08:18:55.431Z,15.68
2022-10-07T08:21:26.934Z,18.50
2022-10-07T08:23:58.223Z,14.18
2022-10-07T08:26:26.504Z,14.87
2022-10-07T08:28:53.502Z,16.30
2022-10-07T08:31:22.907Z,12.57
2022-10-07T08:33:49.928Z,12.15
2022-10-07T08:36:19.832Z,14.13
2022-10-07T08:38:50.298Z,18.80
2022-10-07T08:41:34.281Z,22.00
2022-10-07T08:44:16.703Z,11.30
2022-10-07T08:47:06.529Z,15.70
2022-10-07T08:49:54.456Z,23.42
2022-10-07T08:52:39.346Z,14.87
2022-10-07T08:55:18.682Z,14.70
2022-10-07T08:58:05.563Z,14.30
2022-10-07T09:00:42.670Z,12.20
2022-10-07T09:03:25.348Z,11.70
2022-10-07T09:05:53.459Z,13.68
2022-10-07T09:08:27.419Z,16.15
2022-10-07T09:10:56.017Z,15.20
2022-10-07T09:13:24.972Z,16.62
2022-10-07T09:16:05.216Z,11.90
2022-10-07T09:18:41.605Z,17.30
2022-10-07T09:21:19.068Z,13.75
2022-10-07T09:23:46.767Z,13.65
2022-10-07T09:26:14.919Z,13.15
2022-10-07T09:28:44.862Z,11.23
2022-10-07T09:33:47.062Z,12.43
2022-10-07T09:36:18.342Z,15.05
2022-10-07T09:38:47.557Z,13.40
2022-10-07T09:41:32.328Z,12.60
2022-10-07T09:44:04.126Z,12.88
2022-10-07T09:46:34.951Z,13.15
2022-10-07T09:49:05.651Z,11.68
2022-10-07T09:51:35.142Z,11.35
2022-10-07T09:54:06.752Z,13.05
2022-10-07T09:56:42.685Z,16.23
2022-10-07T09:59:25.137Z,16.17
2022-10-07T10:02:01.518Z,15.30
2022-10-07T10:04:40.731Z,16.12
2022-10-07T10:07:25.893Z,13.82
2022-10-07T10:09:55.392Z,12.65
2022-10-07T10:12:24.570Z,14.27
2022-10-07T10:14:53.566Z,10.73
2022-10-07T10:17:39.668Z,16.62
2022-10-07T10:20:32.756Z,14.15
2022-10-07T10:23:01.070Z,7.57
2022-10-07T10:26:03.873Z,10.30
2022-10-07T10:28:47.754Z,10.68
2022-10-07T10:32:02.279Z,15.40
2022-10-07T10:35:07.446Z,14.13
2022-10-07T10:38:04.180Z,15.63
2022-10-07T10:40:41.467Z,10.27
2022-10-07T10:43:25.657Z,22.10
2022-10-07T10:46:20.974Z,27.80
2022-10-07T10:48:56.267Z,9.32
2022-10-07T10:51:52.827Z,13.30
2022-10-07T10:54:34.093Z,11.68
2022-10-07T10:57:02.043Z,34.20
2022-10-07T10:59:47.734Z,13.18
2022-10-07T11:02:32.302Z,12.65
2022-10-07T11:05:04.126Z,8.90
2022-10-07T11:07:37.924Z,13.23
2022-10-07T11:10:13.897Z,8.48
2022-10-07T11:12:44.178Z,12.43
2022-10-07T11:15:19.985Z,10.60
2022-10-07T11:17:49.918Z,10.73
2022-10-07T11:20:35.620Z,7.57
2022-10-07T11:23:13.712Z,12.60
2022-10-07T11:25:47.915Z,18.27
2022-10-07T11:28:21.732Z,12.90
2022-10-07T11:31:11.704Z,12.82
2022-10-07T11:34:07.395Z,18.95
2022-10-07T11:36:57.169Z,12.30
2022-10-07T11:39:24.755Z,9.38
2022-10-07T11:41:53.690Z,10.50
2022-10-07T11:44:26.729Z,7.10
2022-10-07T11:46:55.109Z,7.37
2022-10-07T11:49:29.501Z,8.50
2022-10-07T11:52:37.121Z,6.70
2022-10-07T11:55:08.394Z,6.85
2022-10-07T11:57:38.344Z,10.30
2022-10-07T12:00:08.705Z,10.07
2022-10-07T12:02:42.111Z,9.07
2022-10-07T12:05:35.051Z,9.68
2022-10-07T12:08:10.917Z,12.35
2022-10-07T12:10:38.139Z,9.52
2022-10-07T12:13:11.113Z,16.70
2022-10-07T12:15:42.157Z,11.18
2022-10-07T12:18:10.432Z,13.82
2022-10-07T12:20:50.124Z,9.40
2022-10-07T12:23:17.127Z,11.88
2022-10-07T12:25:50.136Z,11.90
2022-10-07T12:28:27.150Z,10.75
2022-10-07T12:30:56.334Z,7.72
2022-10-07T12:33:43.076Z,11.02
2022-10-07T12:36:18.993Z,12.60
2022-10-07T12:39:09.760Z,9.35
2022-10-07T12:41:40.177Z,7.30
2022-10-07T12:44:08.224Z,11.30
2022-10-07T12:46:50.850Z,11.20
2022-10-07T12:49:43.154Z,10.18
2022-10-07T12:52:20.083Z,8.38
2022-10-07T12:55:02.446Z,9.07
2022-10-07T12:57:34.437Z,7.82
2022-10-07T13:00:20.086Z,7.97
2022-10-07T13:02:47.088Z,5.70
2022-10-07T13:05:33.197Z,12.30
2022-10-07T13:08:26.610Z,7.47
2022-10-07T13:11:47.816Z,6.82
2022-10-07T13:14:25.537Z,11.23
2022-10-07T13:17:01.547Z,10.25
2022-10-07T13:19:41.571Z,10.60
2022-10-07T13:22:16.839Z,9.23
2022-10-07T13:24:52.337Z,9.65
2022-10-07T13:27:24.823Z,6.03
2022-10-07T13:29:51.931Z,8.07
2022-10-07T13:32:23.733Z,13.85
2022-10-07T13:34:52.082Z,7.28
2022-10-07T13:37:26.103Z,9.02
2022-10-07T13:39:53.124Z,5.82
2022-10-07T13:42:22.590Z,7.97
2022-10-07T13:44:49.468Z,12.35
2022-10-07T13:47:20.872Z,8.05
2022-10-07T13:49:50.058Z,8.45
2022-10-07T13:52:41.476Z,8.40
2022-10-07T13:55:28.655Z,9.32
2022-10-07T13:57:57.339Z,9.80
2022-10-07T14:00:25.610Z,9.65
2022-10-07T14:02:53.044Z,10.35
2022-10-07T14:05:24.069Z,11.68
2022-10-07T14:07:56.104Z,7.57
2022-10-07T14:10:25.973Z,7.87
2022-10-07T14:12:58.477Z,8.27
2022-10-07T14:15:34.854Z,6.47
2022-10-07T14:18:04.371Z,7.70
2022-10-07T14:20:43.826Z,7.28
2022-10-07T14:23:31.186Z,9.75
2022-10-07T14:26:06.519Z,12.45
2022-10-07T14:28:43.600Z,7.00
2022-10-07T14:31:36.314Z,9.38
2022-10-07T14:34:34.312Z,5.87
2022-10-07T14:37:06.191Z,5.47
2022-10-07T14:39:42.509Z,6.22
2022-10-07T14:42:18.398Z,7.20
2022-10-07T14:44:45.470Z,8.25
2022-10-07T14:47:13.750Z,9.73
2022-10-07T14:49:44.518Z,11.70
2022-10-07T14:52:28.377Z,8.80
2022-10-07T14:55:07.546Z,10.10
2022-10-07T14:57:34.509Z,8.65
2022-10-07T15:00:01.728Z,16.25
2022-10-07T15:02:29.247Z,14.80
2022-10-07T15:04:56.124Z,7.30
2022-10-07T15:07:23.254Z,6.50
2022-10-07T15:09:50.091Z,8.65
2022-10-07T15:12:17.098Z,12.98
2022-10-07T15:14:44.219Z,12.57
2022-10-07T15:17:14.164Z,12.18
2022-10-07T15:19:41.162Z,12.93
2022-10-07T15:22:08.260Z,13.52
2022-10-07T15:24:35.090Z,7.90
2022-10-07T15:27:02.463Z,5.57
2022-10-07T15:29:29.559Z,6.45
2022-10-07T15:31:56.447Z,7.45
2022-10-07T15:34:23.345Z,8.45
2022-10-07T15:36:50.439Z,9.80
2022-10-07T15:39:17.278Z,9.35
2022-10-07T15:41:44.625Z,7.18
2022-10-07T15:44:21.459Z,11.30
2022-10-07T15:46:50.081Z,19.27
2022-10-07T15:49:17.261Z,16.40
2022-10-07T15:51:46.164Z,17.25
2022-10-07T15:54:13.147Z,12.07
2022-10-07T15:56:41.475Z,12.77
2022-10-07T15:59:08.530Z,10.57
2022-10-07T16:01:35.692Z,13.48
2022-10-07T16:04:03.487Z,70.60
2022-10-07T16:06:33.228Z,16.92
2022-10-07T16:09:00.826Z,11.07
2022-10-07T16:11:28.893Z,10.57
2022-10-07T16:13:55.756Z,9.88
2022-10-07T16:16:25.333Z,10.70
2022-10-07T16:18:55.026Z,25.67
2022-10-07T16:21:27.874Z,16.97
2022-10-07T16:23:56.877Z,22.15
2022-10-07T16:26:26.978Z,16.00
2022-10-07T16:31:41.707Z,10.93
2022-10-07T16:34:10.356Z,13.98
2022-10-07T16:36:42.144Z,13.38
2022-10-07T16:39:11.972Z,18.17
2022-10-07T16:41:42.079Z,15.35
2022-10-07T16:44:09.298Z,14.02
2022-10-07T16:46:36.968Z,13.57
2022-10-07T16:49:06.045Z,14.93
2022-10-07T16:51:36.156Z,15.38
2022-10-07T16:56:33.411Z,36.92
2022-10-07T16:59:02.632Z,28.27
2022-10-07T17:01:30.728Z,26.70
2022-10-07T17:03:59.024Z,25.10
2022-10-07T17:06:27.392Z,31.50
2022-10-07T17:08:56.030Z,32.08
2022-10-07T17:11:29.567Z,23.30
2022-10-07T17:13:58.475Z,26.80
2022-10-07T17:16:25.877Z,28.92
2022-10-07T17:18:53.056Z,25.48
2022-10-07T17:21:20.330Z,29.05
2022-10-07T17:23:48.069Z,25.73
2022-10-07T17:26:18.823Z,28.70
2022-10-07T17:28:49.915Z,35.00
2022-10-07T17:31:18.105Z,36.67
2022-10-07T17:33:45.603Z,39.80
2022-10-07T17:36:15.448Z,36.70
2022-10-07T17:38:45.602Z,39.03
2022-10-07T17:43:47.746Z,68.72
2022-10-07T17:46:17.162Z,67.45
2022-10-07T17:48:45.115Z,80.38
2022-10-07T17:51:16.530Z,95.53
2022-10-07T17:53:48.425Z,70.28
2022-10-07T17:56:18.565Z,83.05
2022-10-07T17:58:47.228Z,72.30
2022-10-07T18:01:17.523Z,87.20
2022-10-07T18:03:50.263Z,82.28
2022-10-07T18:06:17.549Z,94.93
2022-10-07T18:08:44.662Z,89.75
2022-10-07T18:11:15.846Z,71.37
2022-10-07T18:14:04.186Z,64.75
2022-10-07T18:16:32.869Z,102.97
2022-10-07T18:19:00.006Z,106.68
2022-10-07T18:21:30.297Z,87.55
2022-10-07T18:23:58.277Z,69.55
2022-10-07T18:26:25.167Z,101.03
2022-10-07T18:28:52.041Z,63.25
2022-10-07T18:31:19.396Z,79.25
2022-10-07T18:33:46.716Z,69.47
2022-10-07T18:36:18.798Z,63.67
2022-10-07T18:38:46.019Z,58.80
2022-10-07T18:41:17.585Z,71.35
2022-10-07T18:43:45.532Z,61.25
2022-10-07T18:46:15.780Z,51.58
2022-10-07T18:48:48.078Z,54.78
2022-10-07T18:51:16.081Z,49.50
2022-10-07T18:53:46.478Z,45.42
2022-10-07T18:56:23.222Z,67.47
2022-10-07T18:58:52.630Z,59.55
2022-10-07T19:01:22.634Z,49.25
2022-10-07T19:03:57.597Z,65.05
2022-10-07T19:06:25.625Z,49.67
2022-10-07T19:08:54.221Z,57.17
2022-10-07T19:11:22.250Z,48.78
2022-10-07T19:13:52.042Z,39.80
2022-10-07T19:16:24.588Z,51.40
2022-10-07T19:18:53.951Z,49.38
2022-10-07T19:21:21.089Z,57.17
2022-10-07T19:23:49.142Z,64.87
2022-10-07T19:26:21.332Z,70.18
2022-10-07T19:28:49.894Z,59.28
2022-10-07T19:31:18.734Z,55.53
2022-10-07T19:33:46.797Z,55.83
2022-10-07T19:36:18.038Z,56.55
2022-10-07T19:38:52.284Z,59.20
2022-10-07T19:41:21.832Z,63.20
2022-10-07T19:43:49.098Z,50.50
2022-10-07T19:46:17.445Z,52.40
2022-10-07T19:48:44.405Z,62.17
2022-10-07T19:51:17.252Z,58.87
2022-10-07T19:53:47.543Z,62.25
2022-10-07T19:58:49.294Z,53.38
2022-10-07T20:01:18.925Z,55.90
2022-10-07T20:03:46.090Z,50.27
2022-10-07T20:06:16.229Z,44.40
2022-10-07T20:08:45.084Z,36.90
2022-10-07T20:11:15.307Z,34.50
2022-10-07T20:13:45.166Z,30.35
2022-10-07T20:16:20.252Z,48.30
2022-10-07T20:18:49.850Z,36.80
2022-10-07T20:21:20.654Z,31.60
2022-10-07T20:26:20.485Z,35.65
2022-10-07T20:28:48.832Z,57.40
2022-10-07T20:31:18.669Z,42.55
2022-10-07T20:33:51.433Z,40.58
2022-10-07T20:36:20.595Z,37.55
2022-10-07T20:39:06.442Z,37.08
2022-10-07T20:41:51.692Z,38.20
2022-10-07T20:44:18.889Z,32.65
2022-10-07T20:46:45.735Z,42.92
2022-10-07T20:49:22.732Z,51.10
2022-10-07T20:51:55.110Z,47.30
2022-10-07T20:54:23.593Z,34.78
2022-10-07T20:56:51.790Z,37.38
2022-10-07T20:59:18.777Z,32.70
2022-10-07T21:01:45.726Z,33.97
2022-10-07T21:04:14.482Z,35.20
2022-10-07T21:06:42.301Z,38.38
2022-10-07T21:09:09.966Z,36.38
2022-10-07T21:11:37.186Z,62.05
2022-10-07T21:14:04.803Z,43.60
2022-10-07T21:16:32.420Z,41.42
2022-10-07T21:18:59.661Z,32.50
2022-10-07T21:21:26.653Z,31.23
2022-10-07T21:23:53.493Z,37.42
2022-10-07T21:26:20.856Z,35.50
2022-10-07T21:28:50.627Z,48.25
2022-10-07T21:31:20.306Z,45.47
2022-10-07T21:33:50.584Z,51.72
2022-10-07T21:36:22.231Z,40.50
2022-10-07T21:38:55.958Z,44.75
2022-10-07T21:41:31.096Z,56.47
2022-10-07T21:43:58.536Z,45.22
2022-10-07T21:46:26.484Z,46.88
2022-10-07T21:48:55.130Z,53.05
2022-10-07T21:51:22.848Z,35.88
2022-10-07T21:53:54.575Z,49.50
2022-10-07T21:56:21.444Z,44.85
2022-10-07T21:58:49.543Z,43.78
2022-10-07T22:01:18.164Z,41.85
2022-10-07T22:03:46.091Z,45.63
2022-10-07T22:06:15.516Z,43.75
2022-10-07T22:08:46.519Z,35.88
2022-10-07T22:11:18.346Z,41.05
2022-10-07T22:13:55.229Z,41.70
2022-10-07T22:16:22.956Z,42.17
2022-10-07T22:18:51.959Z,38.60
2022-10-07T22:21:29.500Z,43.92
2022-10-07T22:24:01.222Z,36.35
2022-10-07T22:26:29.937Z,32.20
2022-10-07T22:28:57.350Z,37.45
2022-10-07T22:31:24.352Z,35.10
2022-10-07T22:33:53.418Z,45.03
2022-10-07T22:36:20.967Z,38.67
2022-10-07T22:38:47.835Z,40.95
2022-10-07T22:41:16.927Z,36.80
2022-10-07T22:43:47.714Z,40.38
2022-10-07T22:46:26.023Z,35.42
2022-10-07T22:48:56.202Z,39.78
2022-10-07T22:51:24.683Z,47.15
2022-10-07T22:53:56.087Z,34.90
2022-10-07T22:56:24.633Z,37.75
2022-10-07T22:58:58.005Z,42.00
2022-10-07T23:01:26.065Z,38.45
2022-10-07T23:03:53.113Z,42.70
2022-10-07T23:06:20.050Z,35.78
2022-10-07T23:08:48.330Z,38.92
2022-10-07T23:11:21.540Z,41.03
2022-10-07T23:13:48.710Z,32.08
2022-10-07T23:16:16.936Z,35.65
2022-10-07T23:18:48.166Z,33.83
2022-10-07T23:21:17.845Z,38.67
2022-10-07T23:23:47.683Z,32.60
2022-10-07T23:26:33.431Z,37.03
2022-10-07T23:29:00.716Z,37.42
2022-10-07T23:31:29.132Z,32.80
2022-10-07T23:33:57.187Z,34.60
2022-10-07T23:36:25.373Z,32.13
2022-10-07T23:38:52.834Z,32.78
2022-10-07T23:41:24.876Z,33.60
2022-10-07T23:43:53.713Z,29.75
2022-10-07T23:46:21.656Z,31.02
2022-10-07T23:48:48.603Z,35.42
2022-10-07T23:51:17.970Z,32.40
2022-10-07T23:53:47.980Z,26.42
2022-10-07T23:56:15.406Z,29.90
2022-10-07T23:58:45.167Z,33.70
